sensor_id;sensor_type;location;lat;lon;timestamp;P1;durP1;ratioP1;P2;durP2;ratioP2
20399;SDS011;10359;53.596;22.520;2023-01-28T00:01:51;8.07;;;5.73;;
20399;SDS011;10359;53.596;22.520;2023-01-28T00:04:21;9.07;;;6.40;;
20399;SDS011;10359;53.596;22.520;2023-01-28T00:06:51;10.47;;;7.27;;
20399;SDS011;10359;53.596;22.520;2023-01-28T00:09:20;9.77;;;7.13;;
20399;SDS011;10359;53.596;22.520;2023-01-28T00:11:51;8.57;;;6.63;;
20399;SDS011;10359;53.596;22.520;2023-01-28T00:14:20;9.27;;;6.97;;
20399;SDS011;10359;53.596;22.520;2023-01-28T00:16:51;9.27;;;6.87;;
20399;SDS011;10359;53.596;22.520;2023-01-28T00:19:22;9.47;;;7.20;;
20399;SDS011;10359;53.596;22.520;2023-01-28T00:21:52;11.10;;;7.53;;
20399;SDS011;10359;53.596;22.520;2023-01-28T00:24:21;31.87;;;22.50;;
20399;SDS011;10359;53.596;22.520;2023-01-28T00:26:51;15.80;;;12.33;;
20399;SDS011;10359;53.596;22.520;2023-01-28T00:29:21;13.73;;;9.90;;
20399;SDS011;10359;53.596;22.520;2023-01-28T00:31:51;12.13;;;7.90;;
20399;SDS011;10359;53.596;22.520;2023-01-28T00:34:23;8.67;;;7.27;;
20399;SDS011;10359;53.596;22.520;2023-01-28T00:36:53;11.27;;;8.20;;
20399;SDS011;10359;53.596;22.520;2023-01-28T00:39:25;11.57;;;7.80;;
20399;SDS011;10359;53.596;22.520;2023-01-28T00:41:56;11.37;;;7.97;;
20399;SDS011;10359;53.596;22.520;2023-01-28T00:44:26;17.63;;;12.83;;
20399;SDS011;10359;53.596;22.520;2023-01-28T00:46:56;11.13;;;8.00;;
20399;SDS011;10359;53.596;22.520;2023-01-28T00:49:28;11.37;;;7.77;;
20399;SDS011;10359;53.596;22.520;2023-01-28T00:51:58;10.27;;;6.97;;
20399;SDS011;10359;53.596;22.520;2023-01-28T00:54:27;10.90;;;7.57;;
20399;SDS011;10359;53.596;22.520;2023-01-28T00:56:57;10.67;;;8.00;;
20399;SDS011;10359;53.596;22.520;2023-01-28T00:59:26;11.83;;;7.97;;
20399;SDS011;10359;53.596;22.520;2023-01-28T01:01:56;11.33;;;7.23;;
20399;SDS011;10359;53.596;22.520;2023-01-28T01:04:39;11.23;;;7.33;;
20399;SDS011;10359;53.596;22.520;2023-01-28T01:07:21;10.37;;;7.20;;
20399;SDS011;10359;53.596;22.520;2023-01-28T01:09:58;11.67;;;7.87;;
20399;SDS011;10359;53.596;22.520;2023-01-28T01:12:28;11.03;;;7.70;;
20399;SDS011;10359;53.596;22.520;2023-01-28T01:14:58;10.53;;;7.23;;
20399;SDS011;10359;53.596;22.520;2023-01-28T01:17:28;10.20;;;7.57;;
20399;SDS011;10359;53.596;22.520;2023-01-28T01:20:00;10.23;;;7.17;;
20399;SDS011;10359;53.596;22.520;2023-01-28T01:22:31;10.33;;;7.17;;
20399;SDS011;10359;53.596;22.520;2023-01-28T01:25:01;9.80;;;7.00;;
20399;SDS011;10359;53.596;22.520;2023-01-28T01:27:31;10.63;;;7.57;;
20399;SDS011;10359;53.596;22.520;2023-01-28T01:30:01;10.77;;;7.23;;
20399;SDS011;10359;53.596;22.520;2023-01-28T01:32:31;11.23;;;7.67;;
20399;SDS011;10359;53.596;22.520;2023-01-28T01:35:09;9.20;;;7.03;;
20399;SDS011;10359;53.596;22.520;2023-01-28T01:37:42;7.07;;;6.23;;
20399;SDS011;10359;53.596;22.520;2023-01-28T01:40:12;8.80;;;6.77;;
20399;SDS011;10359;53.596;22.520;2023-01-28T01:42:43;10.90;;;7.00;;
20399;SDS011;10359;53.596;22.520;2023-01-28T01:45:13;8.53;;;6.20;;
20399;SDS011;10359;53.596;22.520;2023-01-28T01:47:45;9.50;;;6.33;;
20399;SDS011;10359;53.596;22.520;2023-01-28T01:50:29;9.47;;;6.10;;
20399;SDS011;10359;53.596;22.520;2023-01-28T01:53:02;10.00;;;6.90;;
20399;SDS011;10359;53.596;22.520;2023-01-28T01:55:35;8.87;;;6.67;;
20399;SDS011;10359;53.596;22.520;2023-01-28T01:58:09;10.23;;;7.13;;
20399;SDS011;10359;53.596;22.520;2023-01-28T02:00:42;8.77;;;6.90;;
20399;SDS011;10359;53.596;22.520;2023-01-28T02:03:12;9.70;;;6.70;;
20399;SDS011;10359;53.596;22.520;2023-01-28T02:05:47;10.27;;;6.77;;
20399;SDS011;10359;53.596;22.520;2023-01-28T02:08:18;7.90;;;6.17;;
20399;SDS011;10359;53.596;22.520;2023-01-28T02:13:52;8.37;;;6.23;;
20399;SDS011;10359;53.596;22.520;2023-01-28T02:16:24;9.03;;;6.23;;
20399;SDS011;10359;53.596;22.520;2023-01-28T02:18:54;8.33;;;6.27;;
20399;SDS011;10359;53.596;22.520;2023-01-28T02:24:35;7.07;;;5.77;;
20399;SDS011;10359;53.596;22.520;2023-01-28T02:30:18;6.47;;;5.30;;
20399;SDS011;10359;53.596;22.520;2023-01-28T02:32:52;9.03;;;6.07;;
20399;SDS011;10359;53.596;22.520;2023-01-28T02:35:28;9.07;;;6.03;;
20399;SDS011;10359;53.596;22.520;2023-01-28T02:38:03;7.00;;;5.93;;
20399;SDS011;10359;53.596;22.520;2023-01-28T02:40:35;8.60;;;6.17;;
20399;SDS011;10359;53.596;22.520;2023-01-28T02:43:30;8.07;;;5.70;;
20399;SDS011;10359;53.596;22.520;2023-01-28T02:46:07;6.33;;;5.17;;
20399;SDS011;10359;53.596;22.520;2023-01-28T02:48:58;8.07;;;5.60;;
20399;SDS011;10359;53.596;22.520;2023-01-28T02:51:30;8.37;;;5.77;;
20399;SDS011;10359;53.596;22.520;2023-01-28T02:54:09;8.13;;;6.30;;
20399;SDS011;10359;53.596;22.520;2023-01-28T02:56:42;6.37;;;5.20;;
20399;SDS011;10359;53.596;22.520;2023-01-28T02:59:19;8.30;;;5.53;;
20399;SDS011;10359;53.596;22.520;2023-01-28T03:02:07;7.47;;;5.50;;
20399;SDS011;10359;53.596;22.520;2023-01-28T03:04:42;7.77;;;5.93;;
20399;SDS011;10359;53.596;22.520;2023-01-28T03:07:15;7.10;;;5.87;;
20399;SDS011;10359;53.596;22.520;2023-01-28T03:09:45;8.17;;;5.73;;
20399;SDS011;10359;53.596;22.520;2023-01-28T03:12:17;7.27;;;5.53;;
20399;SDS011;10359;53.596;22.520;2023-01-28T03:15:09;6.77;;;5.30;;
20399;SDS011;10359;53.596;22.520;2023-01-28T03:17:59;6.47;;;5.47;;
20399;SDS011;10359;53.596;22.520;2023-01-28T03:20:49;8.47;;;5.97;;
20399;SDS011;10359;53.596;22.520;2023-01-28T03:23:40;7.10;;;5.40;;
20399;SDS011;10359;53.596;22.520;2023-01-28T03:26:32;8.40;;;5.57;;
20399;SDS011;10359;53.596;22.520;2023-01-28T03:29:23;7.90;;;5.53;;
20399;SDS011;10359;53.596;22.520;2023-01-28T03:32:14;7.50;;;5.67;;
20399;SDS011;10359;53.596;22.520;2023-01-28T03:35:01;6.87;;;5.70;;
20399;SDS011;10359;53.596;22.520;2023-01-28T03:37:48;7.93;;;5.80;;
20399;SDS011;10359;53.596;22.520;2023-01-28T03:40:17;8.70;;;5.80;;
20399;SDS011;10359;53.596;22.520;2023-01-28T03:42:46;8.17;;;5.73;;
20399;SDS011;10359;53.596;22.520;2023-01-28T03:45:18;7.70;;;5.80;;
20399;SDS011;10359;53.596;22.520;2023-01-28T03:47:49;7.87;;;5.63;;
20399;SDS011;10359;53.596;22.520;2023-01-28T03:50:18;9.23;;;6.40;;
20399;SDS011;10359;53.596;22.520;2023-01-28T03:52:47;9.13;;;6.53;;
20399;SDS011;10359;53.596;22.520;2023-01-28T03:55:16;8.93;;;6.50;;
20399;SDS011;10359;53.596;22.520;2023-01-28T03:57:45;8.47;;;6.30;;
20399;SDS011;10359;53.596;22.520;2023-01-28T04:00:15;8.30;;;6.47;;
20399;SDS011;10359;53.596;22.520;2023-01-28T04:02:46;10.70;;;7.50;;
20399;SDS011;10359;53.596;22.520;2023-01-28T04:05:16;10.83;;;7.03;;
20399;SDS011;10359;53.596;22.520;2023-01-28T04:07:46;10.50;;;7.50;;
20399;SDS011;10359;53.596;22.520;2023-01-28T04:10:18;11.33;;;7.87;;
20399;SDS011;10359;53.596;22.520;2023-01-28T04:12:47;11.03;;;7.63;;
20399;SDS011;10359;53.596;22.520;2023-01-28T04:15:20;11.20;;;7.93;;
20399;SDS011;10359;53.596;22.520;2023-01-28T04:17:49;11.03;;;8.63;;
20399;SDS011;10359;53.596;22.520;2023-01-28T04:20:20;12.70;;;8.13;;
20399;SDS011;10359;53.596;22.520;2023-01-28T04:22:49;13.17;;;8.60;;
20399;SDS011;10359;53.596;22.520;2023-01-28T04:25:18;13.53;;;8.50;;
20399;SDS011;10359;53.596;22.520;2023-01-28T04:27:47;12.67;;;9.03;;
20399;SDS011;10359;53.596;22.520;2023-01-28T04:30:16;12.90;;;8.63;;
20399;SDS011;10359;53.596;22.520;2023-01-28T04:32:46;10.77;;;7.63;;
20399;SDS011;10359;53.596;22.520;2023-01-28T04:35:16;12.60;;;9.33;;
20399;SDS011;10359;53.596;22.520;2023-01-28T04:37:47;14.03;;;8.33;;
20399;SDS011;10359;53.596;22.520;2023-01-28T04:40:16;11.30;;;8.30;;
20399;SDS011;10359;53.596;22.520;2023-01-28T04:42:51;11.53;;;8.57;;
20399;SDS011;10359;53.596;22.520;2023-01-28T04:45:21;13.17;;;8.60;;
20399;SDS011;10359;53.596;22.520;2023-01-28T04:47:50;12.67;;;8.90;;
20399;SDS011;10359;53.596;22.520;2023-01-28T04:50:19;12.77;;;9.10;;
20399;SDS011;10359;53.596;22.520;2023-01-28T04:52:50;14.63;;;9.23;;
20399;SDS011;10359;53.596;22.520;2023-01-28T04:55:19;10.73;;;8.40;;
20399;SDS011;10359;53.596;22.520;2023-01-28T04:57:48;12.27;;;8.73;;
20399;SDS011;10359;53.596;22.520;2023-01-28T05:00:17;11.83;;;8.47;;
20399;SDS011;10359;53.596;22.520;2023-01-28T05:02:46;13.40;;;8.80;;
20399;SDS011;10359;53.596;22.520;2023-01-28T05:05:15;12.93;;;9.33;;
20399;SDS011;10359;53.596;22.520;2023-01-28T05:07:50;10.23;;;7.77;;
20399;SDS011;10359;53.596;22.520;2023-01-28T05:10:20;13.97;;;8.93;;
20399;SDS011;10359;53.596;22.520;2023-01-28T05:12:49;12.03;;;8.67;;
20399;SDS011;10359;53.596;22.520;2023-01-28T05:15:18;11.67;;;8.33;;
20399;SDS011;10359;53.596;22.520;2023-01-28T05:17:48;12.57;;;8.33;;
20399;SDS011;10359;53.596;22.520;2023-01-28T05:20:17;13.97;;;9.07;;
20399;SDS011;10359;53.596;22.520;2023-01-28T05:22:46;12.57;;;8.57;;
20399;SDS011;10359;53.596;22.520;2023-01-28T05:25:17;12.17;;;8.57;;
20399;SDS011;10359;53.596;22.520;2023-01-28T05:27:50;11.33;;;8.50;;
20399;SDS011;10359;53.596;22.520;2023-01-28T05:30:19;10.50;;;7.93;;
20399;SDS011;10359;53.596;22.520;2023-01-28T05:32:49;10.83;;;7.77;;
20399;SDS011;10359;53.596;22.520;2023-01-28T05:35:22;9.50;;;7.93;;
20399;SDS011;10359;53.596;22.520;2023-01-28T05:37:51;11.27;;;7.87;;
20399;SDS011;10359;53.596;22.520;2023-01-28T05:40:21;13.70;;;8.30;;
20399;SDS011;10359;53.596;22.520;2023-01-28T05:42:51;11.23;;;8.50;;
20399;SDS011;10359;53.596;22.520;2023-01-28T05:45:20;11.13;;;8.43;;
20399;SDS011;10359;53.596;22.520;2023-01-28T05:47:49;11.73;;;8.73;;
20399;SDS011;10359;53.596;22.520;2023-01-28T05:50:18;10.90;;;8.47;;
20399;SDS011;10359;53.596;22.520;2023-01-28T05:52:47;12.73;;;8.47;;
20399;SDS011;10359;53.596;22.520;2023-01-28T05:55:16;11.47;;;8.23;;
20399;SDS011;10359;53.596;22.520;2023-01-28T05:57:48;10.40;;;7.70;;
20399;SDS011;10359;53.596;22.520;2023-01-28T06:00:17;10.23;;;7.80;;
20399;SDS011;10359;53.596;22.520;2023-01-28T06:02:47;10.07;;;7.50;;
20399;SDS011;10359;53.596;22.520;2023-01-28T06:05:18;10.70;;;7.47;;
20399;SDS011;10359;53.596;22.520;2023-01-28T06:07:47;10.13;;;7.03;;
20399;SDS011;10359;53.596;22.520;2023-01-28T06:10:17;9.10;;;7.13;;
20399;SDS011;10359;53.596;22.520;2023-01-28T06:12:46;7.87;;;6.60;;
20399;SDS011;10359;53.596;22.520;2023-01-28T06:15:16;8.20;;;6.27;;
20399;SDS011;10359;53.596;22.520;2023-01-28T06:17:45;8.80;;;6.23;;
20399;SDS011;10359;53.596;22.520;2023-01-28T06:20:15;7.37;;;5.77;;
20399;SDS011;10359;53.596;22.520;2023-01-28T06:22:45;9.50;;;6.67;;
20399;SDS011;10359;53.596;22.520;2023-01-28T06:25:14;7.87;;;5.93;;
20399;SDS011;10359;53.596;22.520;2023-01-28T06:27:43;8.23;;;5.87;;
20399;SDS011;10359;53.596;22.520;2023-01-28T06:30:14;8.57;;;6.27;;
20399;SDS011;10359;53.596;22.520;2023-01-28T06:32:44;7.00;;;5.87;;
20399;SDS011;10359;53.596;22.520;2023-01-28T06:35:13;6.73;;;5.47;;
20399;SDS011;10359;53.596;22.520;2023-01-28T06:37:42;7.63;;;5.97;;
20399;SDS011;10359;53.596;22.520;2023-01-28T06:40:12;7.97;;;5.87;;
20399;SDS011;10359;53.596;22.520;2023-01-28T06:42:41;8.37;;;6.10;;
20399;SDS011;10359;53.596;22.520;2023-01-28T06:45:10;7.07;;;5.83;;
20399;SDS011;10359;53.596;22.520;2023-01-28T06:47:41;7.30;;;5.77;;
20399;SDS011;10359;53.596;22.520;2023-01-28T06:50:10;7.43;;;6.00;;
20399;SDS011;10359;53.596;22.520;2023-01-28T06:52:39;9.27;;;5.83;;
20399;SDS011;10359;53.596;22.520;2023-01-28T06:55:08;7.10;;;5.43;;
20399;SDS011;10359;53.596;22.520;2023-01-28T06:57:38;7.43;;;5.73;;
20399;SDS011;10359;53.596;22.520;2023-01-28T07:00:08;7.73;;;5.77;;
20399;SDS011;10359;53.596;22.520;2023-01-28T07:02:41;7.97;;;5.80;;
20399;SDS011;10359;53.596;22.520;2023-01-28T07:05:10;6.63;;;5.53;;
20399;SDS011;10359;53.596;22.520;2023-01-28T07:07:39;7.67;;;5.33;;
20399;SDS011;10359;53.596;22.520;2023-01-28T07:10:08;7.17;;;5.77;;
20399;SDS011;10359;53.596;22.520;2023-01-28T07:12:39;7.50;;;5.73;;
20399;SDS011;10359;53.596;22.520;2023-01-28T07:15:11;7.33;;;5.47;;
20399;SDS011;10359;53.596;22.520;2023-01-28T07:17:42;7.17;;;5.60;;
20399;SDS011;10359;53.596;22.520;2023-01-28T07:20:12;8.27;;;5.87;;
20399;SDS011;10359;53.596;22.520;2023-01-28T07:22:44;6.70;;;5.50;;
20399;SDS011;10359;53.596;22.520;2023-01-28T07:25:13;6.77;;;5.23;;
20399;SDS011;10359;53.596;22.520;2023-01-28T07:27:46;6.40;;;5.33;;
20399;SDS011;10359;53.596;22.520;2023-01-28T07:30:17;6.57;;;5.10;;
20399;SDS011;10359;53.596;22.520;2023-01-28T07:32:51;7.13;;;5.57;;
20399;SDS011;10359;53.596;22.520;2023-01-28T07:35:20;6.87;;;5.20;;
20399;SDS011;10359;53.596;22.520;2023-01-28T07:37:50;7.23;;;5.53;;
20399;SDS011;10359;53.596;22.520;2023-01-28T07:40:20;5.90;;;5.10;;
20399;SDS011;10359;53.596;22.520;2023-01-28T07:42:49;6.57;;;5.70;;
20399;SDS011;10359;53.596;22.520;2023-01-28T07:45:19;8.10;;;5.70;;
20399;SDS011;10359;53.596;22.520;2023-01-28T07:47:53;7.63;;;5.73;;
20399;SDS011;10359;53.596;22.520;2023-01-28T07:50:23;7.67;;;5.77;;
20399;SDS011;10359;53.596;22.520;2023-01-28T07:52:54;8.00;;;5.67;;
20399;SDS011;10359;53.596;22.520;2023-01-28T07:55:24;8.53;;;6.70;;
20399;SDS011;10359;53.596;22.520;2023-01-28T07:57:57;7.60;;;5.67;;
20399;SDS011;10359;53.596;22.520;2023-01-28T08:00:27;7.40;;;6.50;;
20399;SDS011;10359;53.596;22.520;2023-01-28T08:02:59;7.67;;;6.00;;
20399;SDS011;10359;53.596;22.520;2023-01-28T08:05:30;9.13;;;6.13;;
20399;SDS011;10359;53.596;22.520;2023-01-28T08:08:07;8.27;;;6.43;;
20399;SDS011;10359;53.596;22.520;2023-01-28T08:10:36;8.97;;;6.27;;
20399;SDS011;10359;53.596;22.520;2023-01-28T08:13:06;8.40;;;6.57;;
20399;SDS011;10359;53.596;22.520;2023-01-28T08:15:36;7.57;;;5.97;;
20399;SDS011;10359;53.596;22.520;2023-01-28T08:18:07;7.03;;;5.47;;
20399;SDS011;10359;53.596;22.520;2023-01-28T08:20:38;7.63;;;6.00;;
20399;SDS011;10359;53.596;22.520;2023-01-28T08:23:10;7.57;;;5.77;;
20399;SDS011;10359;53.596;22.520;2023-01-28T08:25:41;6.27;;;5.63;;
20399;SDS011;10359;53.596;22.520;2023-01-28T08:28:12;7.23;;;6.07;;
20399;SDS011;10359;53.596;22.520;2023-01-28T08:30:43;6.77;;;5.47;;
20399;SDS011;10359;53.596;22.520;2023-01-28T08:33:14;7.90;;;6.07;;
20399;SDS011;10359;53.596;22.520;2023-01-28T08:35:44;6.87;;;5.73;;
20399;SDS011;10359;53.596;22.520;2023-01-28T08:38:14;6.70;;;5.70;;
20399;SDS011;10359;53.596;22.520;2023-01-28T08:40:43;6.93;;;5.50;;
20399;SDS011;10359;53.596;22.520;2023-01-28T08:43:12;8.60;;;6.50;;
20399;SDS011;10359;53.596;22.520;2023-01-28T08:45:41;8.97;;;5.97;;
20399;SDS011;10359;53.596;22.520;2023-01-28T08:48:11;7.63;;;6.17;;
20399;SDS011;10359;53.596;22.520;2023-01-28T08:50:44;6.80;;;5.80;;
20399;SDS011;10359;53.596;22.520;2023-01-28T08:53:14;7.93;;;6.33;;
20399;SDS011;10359;53.596;22.520;2023-01-28T08:55:45;7.17;;;5.77;;
20399;SDS011;10359;53.596;22.520;2023-01-28T08:58:14;7.40;;;5.97;;
20399;SDS011;10359;53.596;22.520;2023-01-28T09:00:45;7.73;;;6.00;;
20399;SDS011;10359;53.596;22.520;2023-01-28T09:03:16;7.83;;;6.47;;
20399;SDS011;10359;53.596;22.520;2023-01-28T09:05:45;7.90;;;6.40;;
20399;SDS011;10359;53.596;22.520;2023-01-28T09:08:15;8.67;;;6.13;;
20399;SDS011;10359;53.596;22.520;2023-01-28T09:10:53;7.10;;;6.37;;
20399;SDS011;10359;53.596;22.520;2023-01-28T09:13:23;7.43;;;6.27;;
20399;SDS011;10359;53.596;22.520;2023-01-28T09:15:54;6.83;;;6.00;;
20399;SDS011;10359;53.596;22.520;2023-01-28T09:18:25;9.27;;;6.50;;
20399;SDS011;10359;53.596;22.520;2023-01-28T09:20:54;8.47;;;6.53;;
20399;SDS011;10359;53.596;22.520;2023-01-28T09:23:22;7.83;;;6.07;;
20399;SDS011;10359;53.596;22.520;2023-01-28T09:25:58;6.67;;;5.83;;
20399;SDS011;10359;53.596;22.520;2023-01-28T09:28:27;7.67;;;6.50;;
20399;SDS011;10359;53.596;22.520;2023-01-28T09:31:00;9.57;;;6.87;;
20399;SDS011;10359;53.596;22.520;2023-01-28T09:33:31;8.33;;;7.13;;
20399;SDS011;10359;53.596;22.520;2023-01-28T09:36:00;9.27;;;7.83;;
20399;SDS011;10359;53.596;22.520;2023-01-28T09:38:30;9.97;;;7.40;;
20399;SDS011;10359;53.596;22.520;2023-01-28T09:41:01;8.37;;;6.80;;
20399;SDS011;10359;53.596;22.520;2023-01-28T09:43:43;7.23;;;6.33;;
20399;SDS011;10359;53.596;22.520;2023-01-28T09:46:22;9.10;;;7.33;;
20399;SDS011;10359;53.596;22.520;2023-01-28T09:49:04;8.50;;;7.00;;
20399;SDS011;10359;53.596;22.520;2023-01-28T09:51:44;10.00;;;7.50;;
20399;SDS011;10359;53.596;22.520;2023-01-28T09:54:22;8.97;;;6.67;;
20399;SDS011;10359;53.596;22.520;2023-01-28T09:56:59;7.57;;;6.40;;
20399;SDS011;10359;53.596;22.520;2023-01-28T09:59:33;8.97;;;7.03;;
20399;SDS011;10359;53.596;22.520;2023-01-28T10:02:11;9.23;;;7.07;;
20399;SDS011;10359;53.596;22.520;2023-01-28T10:04:56;8.23;;;6.80;;
20399;SDS011;10359;53.596;22.520;2023-01-28T10:07:33;8.97;;;7.03;;
20399;SDS011;10359;53.596;22.520;2023-01-28T10:10:08;7.83;;;6.93;;
20399;SDS011;10359;53.596;22.520;2023-01-28T10:12:48;9.40;;;7.20;;
20399;SDS011;10359;53.596;22.520;2023-01-28T10:18:20;9.13;;;6.97;;
20399;SDS011;10359;53.596;22.520;2023-01-28T10:21:06;9.30;;;7.50;;
20399;SDS011;10359;53.596;22.520;2023-01-28T10:23:47;9.57;;;7.57;;
20399;SDS011;10359;53.596;22.520;2023-01-28T10:26:22;8.80;;;7.30;;
20399;SDS011;10359;53.596;22.520;2023-01-28T10:28:54;9.10;;;7.53;;
20399;SDS011;10359;53.596;22.520;2023-01-28T10:31:29;9.50;;;7.37;;
20399;SDS011;10359;53.596;22.520;2023-01-28T10:34:02;9.00;;;6.80;;
20399;SDS011;10359;53.596;22.520;2023-01-28T10:36:33;7.17;;;6.47;;
20399;SDS011;10359;53.596;22.520;2023-01-28T10:39:02;8.43;;;6.80;;
20399;SDS011;10359;53.596;22.520;2023-01-28T10:41:33;8.13;;;6.50;;
20399;SDS011;10359;53.596;22.520;2023-01-28T10:44:15;8.07;;;6.80;;
20399;SDS011;10359;53.596;22.520;2023-01-28T10:46:48;7.47;;;6.37;;
20399;SDS011;10359;53.596;22.520;2023-01-28T10:49:20;7.17;;;6.03;;
20399;SDS011;10359;53.596;22.520;2023-01-28T10:51:55;8.60;;;6.90;;
20399;SDS011;10359;53.596;22.520;2023-01-28T10:54:24;9.90;;;7.60;;
20399;SDS011;10359;53.596;22.520;2023-01-28T10:56:59;9.47;;;7.07;;
20399;SDS011;10359;53.596;22.520;2023-01-28T10:59:34;10.03;;;7.80;;
20399;SDS011;10359;53.596;22.520;2023-01-28T11:02:19;10.60;;;7.37;;
20399;SDS011;10359;53.596;22.520;2023-01-28T11:05:03;8.60;;;7.40;;
20399;SDS011;10359;53.596;22.520;2023-01-28T11:07:36;9.97;;;7.50;;
20399;SDS011;10359;53.596;22.520;2023-01-28T11:10:20;8.67;;;7.23;;
20399;SDS011;10359;53.596;22.520;2023-01-28T11:12:54;10.97;;;9.07;;
20399;SDS011;10359;53.596;22.520;2023-01-28T11:15:24;14.77;;;10.53;;
20399;SDS011;10359;53.596;22.520;2023-01-28T11:17:54;13.73;;;10.70;;
20399;SDS011;10359;53.596;22.520;2023-01-28T11:20:26;12.00;;;8.97;;
20399;SDS011;10359;53.596;22.520;2023-01-28T11:22:58;10.80;;;8.33;;
20399;SDS011;10359;53.596;22.520;2023-01-28T11:25:29;9.27;;;8.27;;
20399;SDS011;10359;53.596;22.520;2023-01-28T11:28:01;10.23;;;7.87;;
20399;SDS011;10359;53.596;22.520;2023-01-28T11:30:33;9.73;;;7.70;;
20399;SDS011;10359;53.596;22.520;2023-01-28T11:33:07;11.33;;;8.30;;
20399;SDS011;10359;53.596;22.520;2023-01-28T11:35:51;9.13;;;7.40;;
20399;SDS011;10359;53.596;22.520;2023-01-28T11:38:23;9.57;;;7.73;;
20399;SDS011;10359;53.596;22.520;2023-01-28T11:40:54;9.20;;;7.10;;
20399;SDS011;10359;53.596;22.520;2023-01-28T11:43:26;9.17;;;7.53;;
20399;SDS011;10359;53.596;22.520;2023-01-28T11:45:58;7.87;;;6.67;;
20399;SDS011;10359;53.596;22.520;2023-01-28T11:48:41;8.97;;;6.40;;
20399;SDS011;10359;53.596;22.520;2023-01-28T11:51:22;8.73;;;6.63;;
20399;SDS011;10359;53.596;22.520;2023-01-28T11:54:04;9.30;;;7.70;;
20399;SDS011;10359;53.596;22.520;2023-01-28T11:56:56;12.00;;;8.87;;
20399;SDS011;10359;53.596;22.520;2023-01-28T12:02:59;11.77;;;9.73;;
20399;SDS011;10359;53.596;22.520;2023-01-28T12:05:55;11.53;;;8.93;;
20399;SDS011;10359;53.596;22.520;2023-01-28T12:08:33;12.83;;;9.40;;
20399;SDS011;10359;53.596;22.520;2023-01-28T12:11:12;13.37;;;9.83;;
20399;SDS011;10359;53.596;22.520;2023-01-28T12:14:15;13.13;;;10.30;;
20399;SDS011;10359;53.596;22.520;2023-01-28T12:16:56;14.90;;;10.73;;
20399;SDS011;10359;53.596;22.520;2023-01-28T12:19:45;17.17;;;12.63;;
20399;SDS011;10359;53.596;22.520;2023-01-28T12:22:32;20.53;;;14.60;;
20399;SDS011;10359;53.596;22.520;2023-01-28T12:25:21;21.63;;;15.03;;
20399;SDS011;10359;53.596;22.520;2023-01-28T12:28:10;19.53;;;13.93;;
20399;SDS011;10359;53.596;22.520;2023-01-28T12:30:58;23.97;;;16.20;;
20399;SDS011;10359;53.596;22.520;2023-01-28T12:36:51;28.00;;;16.90;;
20399;SDS011;10359;53.596;22.520;2023-01-28T12:39:33;23.60;;;16.97;;
20399;SDS011;10359;53.596;22.520;2023-01-28T12:42:14;23.27;;;16.93;;
20399;SDS011;10359;53.596;22.520;2023-01-28T12:44:53;26.07;;;17.10;;
20399;SDS011;10359;53.596;22.520;2023-01-28T12:47:30;23.93;;;16.87;;
20399;SDS011;10359;53.596;22.520;2023-01-28T12:50:03;25.13;;;15.60;;
20399;SDS011;10359;53.596;22.520;2023-01-28T12:52:43;25.97;;;18.00;;
20399;SDS011;10359;53.596;22.520;2023-01-28T12:55:15;28.50;;;18.20;;
20399;SDS011;10359;53.596;22.520;2023-01-28T12:57:47;24.57;;;16.53;;
20399;SDS011;10359;53.596;22.520;2023-01-28T13:00:22;22.47;;;15.00;;
20399;SDS011;10359;53.596;22.520;2023-01-28T13:02:56;19.90;;;14.00;;
20399;SDS011;10359;53.596;22.520;2023-01-28T13:05:36;23.97;;;15.77;;
20399;SDS011;10359;53.596;22.520;2023-01-28T13:08:10;19.73;;;14.77;;
20399;SDS011;10359;53.596;22.520;2023-01-28T13:10:43;18.77;;;13.47;;
20399;SDS011;10359;53.596;22.520;2023-01-28T13:13:15;16.93;;;12.07;;
20399;SDS011;10359;53.596;22.520;2023-01-28T13:15:48;18.17;;;12.77;;
20399;SDS011;10359;53.596;22.520;2023-01-28T13:18:29;16.03;;;11.63;;
20399;SDS011;10359;53.596;22.520;2023-01-28T13:21:11;14.30;;;10.20;;
20399;SDS011;10359;53.596;22.520;2023-01-28T13:23:44;17.47;;;12.87;;
20399;SDS011;10359;53.596;22.520;2023-01-28T13:26:28;22.60;;;15.17;;
20399;SDS011;10359;53.596;22.520;2023-01-28T13:29:07;19.83;;;13.83;;
20399;SDS011;10359;53.596;22.520;2023-01-28T13:31:47;14.33;;;10.87;;
20399;SDS011;10359;53.596;22.520;2023-01-28T13:34:25;17.80;;;12.40;;
20399;SDS011;10359;53.596;22.520;2023-01-28T13:37:00;18.07;;;12.63;;
20399;SDS011;10359;53.596;22.520;2023-01-28T13:39:32;17.53;;;13.17;;
20399;SDS011;10359;53.596;22.520;2023-01-28T13:42:22;19.13;;;13.93;;
20399;SDS011;10359;53.596;22.520;2023-01-28T13:44:52;19.87;;;15.03;;
20399;SDS011;10359;53.596;22.520;2023-01-28T13:47:25;21.33;;;15.63;;
20399;SDS011;10359;53.596;22.520;2023-01-28T13:49:59;21.50;;;16.00;;
20399;SDS011;10359;53.596;22.520;2023-01-28T13:52:31;24.13;;;16.30;;
20399;SDS011;10359;53.596;22.520;2023-01-28T13:55:05;24.37;;;16.00;;
20399;SDS011;10359;53.596;22.520;2023-01-28T13:58:19;21.03;;;14.80;;
20399;SDS011;10359;53.596;22.520;2023-01-28T14:04:52;18.47;;;12.57;;
20399;SDS011;10359;53.596;22.520;2023-01-28T14:11:05;16.77;;;11.43;;
20399;SDS011;10359;53.596;22.520;2023-01-28T14:13:59;15.17;;;11.60;;
20399;SDS011;10359;53.596;22.520;2023-01-28T14:16:46;15.60;;;11.13;;
20399;SDS011;10359;53.596;22.520;2023-01-28T14:19:22;14.63;;;11.43;;
20399;SDS011;10359;53.596;22.520;2023-01-28T14:21:56;14.50;;;10.43;;
20399;SDS011;10359;53.596;22.520;2023-01-28T14:24:26;13.30;;;9.63;;
20399;SDS011;10359;53.596;22.520;2023-01-28T14:26:56;12.77;;;9.47;;
20399;SDS011;10359;53.596;22.520;2023-01-28T14:29:36;11.27;;;8.30;;
20399;SDS011;10359;53.596;22.520;2023-01-28T14:32:14;13.47;;;9.33;;
20399;SDS011;10359;53.596;22.520;2023-01-28T14:34:45;9.37;;;7.80;;
20399;SDS011;10359;53.596;22.520;2023-01-28T14:37:17;11.67;;;8.30;;
20399;SDS011;10359;53.596;22.520;2023-01-28T14:39:49;9.57;;;7.30;;
20399;SDS011;10359;53.596;22.520;2023-01-28T14:42:21;11.03;;;7.77;;
20399;SDS011;10359;53.596;22.520;2023-01-28T14:44:55;9.80;;;7.43;;
20399;SDS011;10359;53.596;22.520;2023-01-28T14:47:46;8.77;;;6.73;;
20399;SDS011;10359;53.596;22.520;2023-01-28T14:50:41;10.20;;;7.20;;
20399;SDS011;10359;53.596;22.520;2023-01-28T14:53:24;9.30;;;6.93;;
20399;SDS011;10359;53.596;22.520;2023-01-28T14:56:01;8.13;;;6.17;;
20399;SDS011;10359;53.596;22.520;2023-01-28T14:58:37;8.23;;;5.93;;
20399;SDS011;10359;53.596;22.520;2023-01-28T15:01:17;8.03;;;6.27;;
20399;SDS011;10359;53.596;22.520;2023-01-28T15:03:48;7.70;;;6.37;;
20399;SDS011;10359;53.596;22.520;2023-01-28T15:06:19;8.07;;;6.60;;
20399;SDS011;10359;53.596;22.520;2023-01-28T15:08:52;8.80;;;6.57;;
20399;SDS011;10359;53.596;22.520;2023-01-28T15:11:21;9.90;;;6.20;;
20399;SDS011;10359;53.596;22.520;2023-01-28T15:13:53;9.50;;;6.30;;
20399;SDS011;10359;53.596;22.520;2023-01-28T15:16:25;7.63;;;6.07;;
20399;SDS011;10359;53.596;22.520;2023-01-28T15:18:58;8.13;;;6.30;;
20399;SDS011;10359;53.596;22.520;2023-01-28T15:21:28;6.17;;;5.57;;
20399;SDS011;10359;53.596;22.520;2023-01-28T15:23:59;6.77;;;5.60;;
20399;SDS011;10359;53.596;22.520;2023-01-28T15:26:30;8.10;;;5.87;;
20399;SDS011;10359;53.596;22.520;2023-01-28T15:29:01;7.50;;;5.50;;
20399;SDS011;10359;53.596;22.520;2023-01-28T15:31:31;6.47;;;5.60;;
20399;SDS011;10359;53.596;22.520;2023-01-28T15:34:02;6.40;;;4.80;;